createdAt,value
2023-05-02T00:00:20.988Z,7.10
2023-05-02T00:02:50.949Z,7.10
2023-05-02T00:05:19.535Z,7.10
2023-05-02T00:07:48.062Z,7.00
2023-05-02T00:10:16.378Z,6.80
2023-05-02T00:12:44.638Z,6.80
2023-05-02T00:15:12.938Z,6.80
2023-05-02T00:17:41.892Z,6.80
2023-05-02T00:20:12.265Z,6.80
2023-05-02T00:22:40.665Z,6.80
2023-05-02T00:25:09.492Z,6.80
2023-05-02T00:27:37.778Z,6.80
2023-05-02T00:30:06.797Z,6.80
2023-05-02T00:32:35.664Z,6.80
2023-05-02T00:35:04.008Z,6.80
2023-05-02T00:37:33.720Z,6.80
2023-05-02T00:40:02.349Z,6.80
2023-05-02T00:42:31.760Z,6.80
2023-05-02T00:45:00.129Z,6.70
2023-05-02T00:47:28.556Z,6.70
2023-05-02T00:49:56.846Z,6.80
2023-05-02T00:52:25.257Z,6.80
2023-05-02T00:54:55.256Z,6.80
2023-05-02T00:57:23.720Z,6.80
2023-05-02T00:59:52.316Z,6.80
2023-05-02T01:02:27.186Z,6.80
2023-05-02T01:05:01.354Z,6.80
2023-05-02T01:07:37.415Z,6.80
2023-05-02T01:10:12.909Z,6.80
2023-05-02T01:12:43.538Z,6.80
2023-05-02T01:15:13.478Z,6.80
2023-05-02T01:17:42.536Z,6.80
2023-05-02T01:20:13.322Z,6.80
2023-05-02T01:22:42.511Z,6.80
2023-05-02T01:25:15.998Z,6.90
2023-05-02T01:27:52.776Z,6.90
2023-05-02T01:30:22.797Z,6.90
2023-05-02T01:32:52.875Z,6.90
2023-05-02T01:35:22.500Z,6.90
2023-05-02T01:37:51.069Z,6.90
2023-05-02T01:40:20.712Z,6.90
2023-05-02T01:42:49.851Z,7.00
2023-05-02T01:45:18.563Z,7.00
2023-05-02T01:47:48.851Z,7.00
2023-05-02T01:50:18.686Z,7.00
2023-05-02T01:52:48.281Z,7.00
2023-05-02T01:55:18.219Z,7.00
2023-05-02T01:57:47.920Z,7.00
2023-05-02T02:00:17.689Z,7.00
2023-05-02T02:02:47.575Z,7.00
2023-05-02T02:05:17.945Z,7.00
2023-05-02T02:07:46.499Z,7.00
2023-05-02T02:10:14.952Z,7.00
2023-05-02T02:12:44.180Z,7.00
2023-05-02T02:15:18.262Z,7.00
2023-05-02T02:17:49.133Z,7.00
2023-05-02T02:20:20.055Z,7.00
2023-05-02T02:22:49.376Z,7.10
2023-05-02T02:25:18.327Z,7.10
2023-05-02T02:27:46.610Z,7.10
2023-05-02T02:30:16.626Z,7.20
2023-05-02T02:32:45.045Z,7.20
2023-05-02T02:35:13.425Z,7.10
2023-05-02T02:37:49.398Z,7.20
2023-05-02T02:40:20.487Z,7.20
2023-05-02T02:42:52.110Z,7.20
2023-05-02T02:45:26.184Z,7.20
2023-05-02T02:48:00.239Z,7.20
2023-05-02T02:50:31.586Z,7.20
2023-05-02T02:53:03.645Z,7.20
2023-05-02T02:55:37.543Z,7.30
2023-05-02T02:58:11.493Z,7.20
2023-05-02T03:00:41.019Z,7.30
2023-05-02T03:03:10.049Z,7.30
2023-05-02T03:05:38.655Z,7.30
2023-05-02T03:08:08.406Z,7.30
2023-05-02T03:10:36.939Z,7.30
2023-05-02T03:13:05.318Z,7.20
2023-05-02T03:15:52.093Z,7.30
2023-05-02T03:18:24.743Z,7.20
2023-05-02T03:20:54.087Z,7.20
2023-05-02T03:23:24.106Z,7.30
2023-05-02T03:25:54.946Z,7.30
2023-05-02T03:28:26.054Z,7.40
2023-05-02T03:30:55.008Z,7.40
2023-05-02T03:33:24.128Z,7.50
2023-05-02T03:35:52.660Z,7.50
2023-05-02T03:38:23.353Z,7.60
2023-05-02T03:40:52.650Z,7.60
2023-05-02T03:43:21.012Z,7.70
2023-05-02T03:45:49.331Z,7.80
2023-05-02T03:48:18.546Z,7.80
2023-05-02T03:50:46.867Z,7.90
2023-05-02T03:53:16.254Z,8.00
2023-05-02T03:55:54.440Z,8.00
2023-05-02T03:58:31.133Z,8.10
2023-05-02T04:00:59.631Z,8.10
2023-05-02T04:05:59.371Z,8.20
2023-05-02T04:08:27.956Z,8.30
2023-05-02T04:10:57.801Z,8.20
2023-05-02T04:13:26.252Z,8.50
2023-05-02T04:15:54.658Z,8.50
2023-05-02T04:18:25.204Z,8.60
2023-05-02T04:20:54.559Z,8.60
2023-05-02T04:23:25.298Z,8.70
2023-05-02T04:25:59.884Z,8.70
2023-05-02T04:28:38.144Z,8.70
2023-05-02T04:31:06.652Z,8.80
2023-05-02T04:33:35.104Z,8.80
2023-05-02T04:36:04.607Z,8.90
2023-05-02T04:38:34.957Z,8.90
2023-05-02T04:41:08.799Z,9.00
2023-05-02T04:43:43.037Z,9.00
2023-05-02T04:46:11.964Z,9.00
2023-05-02T04:48:42.331Z,9.10
2023-05-02T04:51:11.299Z,9.10
2023-05-02T04:53:39.754Z,9.10
2023-05-02T04:56:09.894Z,9.10
2023-05-02T04:58:39.525Z,9.10
2023-05-02T05:01:10.876Z,9.10
2023-05-02T05:03:39.640Z,9.20
2023-05-02T05:06:09.315Z,9.20
2023-05-02T05:08:37.900Z,9.30
2023-05-02T05:11:06.971Z,9.30
2023-05-02T05:13:37.655Z,9.40
2023-05-02T05:16:07.739Z,9.50
2023-05-02T05:18:40.869Z,9.50
2023-05-02T05:21:12.128Z,9.50
2023-05-02T05:23:46.131Z,9.60
2023-05-02T05:26:18.252Z,9.70
2023-05-02T05:28:51.443Z,9.80
2023-05-02T05:31:24.299Z,9.80
2023-05-02T05:33:56.543Z,9.90
2023-05-02T05:36:26.908Z,9.90
2023-05-02T05:38:55.199Z,10.00
2023-05-02T05:41:24.807Z,10.10
2023-05-02T05:44:01.638Z,10.20
2023-05-02T05:46:31.428Z,10.30
2023-05-02T05:49:01.690Z,10.40
2023-05-02T05:51:31.608Z,10.40
2023-05-02T05:54:01.231Z,10.60
2023-05-02T05:56:29.873Z,10.70
2023-05-02T05:59:10.444Z,10.80
2023-05-02T06:01:39.343Z,10.90
2023-05-02T06:04:08.750Z,11.00
2023-05-02T06:06:40.818Z,11.10
2023-05-02T06:09:09.573Z,11.20
2023-05-02T06:11:39.222Z,11.30
2023-05-02T06:16:40.971Z,11.30
2023-05-02T06:19:10.182Z,11.60
2023-05-02T06:21:40.849Z,11.60
2023-05-02T06:24:09.185Z,11.70
2023-05-02T06:26:37.414Z,11.70
2023-05-02T06:29:05.765Z,11.80
2023-05-02T06:31:34.056Z,11.90
2023-05-02T06:34:03.841Z,12.00
2023-05-02T06:36:32.306Z,12.20
2023-05-02T06:39:00.593Z,12.10
2023-05-02T06:41:28.984Z,12.20
2023-05-02T06:43:59.778Z,12.10
2023-05-02T06:46:30.157Z,12.10
2023-05-02T06:48:58.642Z,12.20
2023-05-02T06:51:28.331Z,12.20
2023-05-02T06:53:56.696Z,12.20
2023-05-02T06:56:25.681Z,12.30
2023-05-02T06:58:53.991Z,12.30
2023-05-02T07:01:22.310Z,12.40
2023-05-02T07:03:51.121Z,12.50
2023-05-02T07:06:19.483Z,12.50
2023-05-02T07:08:49.371Z,12.50
2023-05-02T07:11:17.752Z,12.60
2023-05-02T07:13:46.591Z,12.60
2023-05-02T07:16:15.274Z,12.70
2023-05-02T07:18:45.827Z,12.70
2023-05-02T07:21:14.499Z,12.70
2023-05-02T07:23:43.046Z,12.80
2023-05-02T07:26:12.754Z,12.90
2023-05-02T07:28:41.131Z,13.00
2023-05-02T07:31:09.390Z,13.10
2023-05-02T07:33:37.709Z,13.20
2023-05-02T07:36:06.481Z,13.20
2023-05-02T07:38:34.766Z,13.30
2023-05-02T07:41:03.059Z,13.30
2023-05-02T07:43:32.841Z,13.40
2023-05-02T07:46:04.984Z,13.50
2023-05-02T07:48:33.338Z,13.50
2023-05-02T07:51:07.390Z,13.60
2023-05-02T07:53:35.689Z,13.60
2023-05-02T07:56:04.947Z,13.70
2023-05-02T07:58:34.757Z,13.80
2023-05-02T08:01:03.068Z,14.00
2023-05-02T08:03:31.637Z,14.00
2023-05-02T08:06:00.061Z,14.00
2023-05-02T08:08:28.412Z,14.00
2023-05-02T08:10:56.877Z,14.00
2023-05-02T08:13:25.189Z,14.10
2023-05-02T08:15:58.133Z,14.20
2023-05-02T08:18:26.654Z,14.20
2023-05-02T08:20:57.024Z,14.20
2023-05-02T08:23:25.413Z,14.40
2023-05-02T08:25:53.797Z,14.50
2023-05-02T08:28:22.120Z,14.60
2023-05-02T08:30:50.494Z,14.80
2023-05-02T08:33:20.442Z,14.80
2023-05-02T08:35:49.282Z,14.90
2023-05-02T08:38:17.583Z,15.10
2023-05-02T08:40:45.960Z,14.90
2023-05-02T08:43:14.548Z,15.20
2023-05-02T08:53:12.283Z,16.10
2023-05-02T08:55:41.269Z,16.20
2023-05-02T08:58:10.488Z,16.20
2023-05-02T09:00:40.217Z,16.20
2023-05-02T09:03:12.032Z,16.30
2023-05-02T09:05:41.890Z,16.40
2023-05-02T09:08:11.512Z,16.50
2023-05-02T09:10:40.968Z,16.40
2023-05-02T09:13:27.874Z,16.30
2023-05-02T09:15:59.155Z,16.20
2023-05-02T09:18:29.843Z,16.20
2023-05-02T09:20:59.358Z,16.30
2023-05-02T09:23:36.379Z,16.60
2023-05-02T09:28:40.210Z,16.60
2023-05-02T09:31:09.390Z,16.80
2023-05-02T09:33:38.186Z,16.80
2023-05-02T09:36:07.292Z,16.70
2023-05-02T09:38:37.260Z,16.70
2023-05-02T09:41:05.813Z,16.70
2023-05-02T09:43:34.242Z,16.80
2023-05-02T09:46:04.201Z,17.00
2023-05-02T09:48:33.856Z,17.20
2023-05-02T09:51:02.741Z,17.20
2023-05-02T09:53:31.016Z,17.50
2023-05-02T09:56:05.008Z,17.80
2023-05-02T09:58:33.310Z,17.90
2023-05-02T10:01:01.845Z,18.00
2023-05-02T10:03:32.236Z,18.20
2023-05-02T10:06:00.950Z,18.20
2023-05-02T10:08:29.801Z,18.00
2023-05-02T10:10:59.133Z,17.90
2023-05-02T10:13:32.431Z,17.80
2023-05-02T10:16:01.892Z,17.50
2023-05-02T10:18:32.997Z,17.40
2023-05-02T10:21:02.932Z,17.40
2023-05-02T10:23:31.278Z,17.40
2023-05-02T10:26:00.552Z,17.40
2023-05-02T10:28:31.406Z,17.20
2023-05-02T10:30:59.952Z,17.10
2023-05-02T10:33:28.797Z,17.20
2023-05-02T10:35:57.177Z,17.00
2023-05-02T10:38:25.618Z,17.00
2023-05-02T10:40:57.113Z,16.90
2023-05-02T10:43:27.087Z,16.80
2023-05-02T10:45:57.011Z,16.80
2023-05-02T10:48:26.816Z,16.70
2023-05-02T10:50:56.075Z,16.60
2023-05-02T10:53:25.264Z,16.50
2023-05-02T10:56:09.787Z,16.50
2023-05-02T10:58:38.171Z,16.40
2023-05-02T11:01:25.052Z,16.30
2023-05-02T11:03:58.608Z,16.40
2023-05-02T11:06:27.782Z,16.30
2023-05-02T11:09:25.762Z,16.30
2023-05-02T11:11:55.030Z,16.30
2023-05-02T11:14:47.512Z,16.30
2023-05-02T11:17:16.693Z,16.20
2023-05-02T11:20:04.330Z,16.20
2023-05-02T11:22:34.097Z,16.10
2023-05-02T11:25:03.085Z,16.10
2023-05-02T11:27:41.479Z,16.10
2023-05-02T11:30:10.322Z,16.10
2023-05-02T11:32:59.419Z,16.00
2023-05-02T11:35:28.125Z,16.00
2023-05-02T11:37:58.145Z,16.00
2023-05-02T11:40:27.141Z,16.00
2023-05-02T11:42:55.628Z,16.00
2023-05-02T11:45:24.256Z,15.90
2023-05-02T11:47:52.722Z,16.00
2023-05-02T11:50:21.192Z,16.00
2023-05-02T11:52:49.422Z,16.10
2023-05-02T11:55:19.321Z,16.10
2023-05-02T11:57:47.609Z,16.10
2023-05-02T12:00:16.355Z,16.10
2023-05-02T12:02:45.115Z,16.20
2023-05-02T12:05:16.015Z,16.20
2023-05-02T12:07:45.109Z,16.30
2023-05-02T12:10:14.097Z,16.30
2023-05-02T12:12:45.020Z,16.30
2023-05-02T12:15:13.881Z,16.20
2023-05-02T12:17:43.060Z,16.20
2023-05-02T12:20:12.465Z,16.10
2023-05-02T12:22:41.105Z,16.00
2023-05-02T12:25:10.245Z,15.90
2023-05-02T12:27:38.584Z,15.90
2023-05-02T12:30:09.256Z,15.80
2023-05-02T12:35:07.272Z,14.50
2023-05-02T12:37:35.572Z,13.40
2023-05-02T12:40:04.165Z,13.20
2023-05-02T12:42:34.674Z,12.80
2023-05-02T12:45:03.018Z,12.60
2023-05-02T12:47:45.720Z,12.30
2023-05-02T12:50:14.042Z,12.10
2023-05-02T12:52:49.073Z,12.00
2023-05-02T12:57:46.048Z,11.80
2023-05-02T13:00:15.103Z,11.60
2023-05-02T13:02:44.914Z,11.50
2023-05-02T13:05:16.544Z,11.50
2023-05-02T13:07:45.064Z,11.30
2023-05-02T13:10:13.545Z,11.10
2023-05-02T13:12:42.506Z,10.90
2023-05-02T13:15:11.770Z,10.70
2023-05-02T13:17:40.226Z,10.60
2023-05-02T13:20:10.790Z,10.50
2023-05-02T13:22:39.273Z,10.40
2023-05-02T13:25:08.365Z,10.20
2023-05-02T13:27:36.713Z,10.10
2023-05-02T13:32:37.332Z,9.80
2023-05-02T13:35:05.986Z,9.80
2023-05-02T13:37:35.785Z,9.70
2023-05-02T13:40:05.356Z,9.60
2023-05-02T13:42:33.908Z,9.60
2023-05-02T13:45:04.306Z,9.60
2023-05-02T13:47:32.690Z,9.60
2023-05-02T13:50:01.410Z,9.60
2023-05-02T13:52:29.992Z,9.60
2023-05-02T13:54:59.735Z,9.60
2023-05-02T13:57:28.079Z,9.50
2023-05-02T13:59:56.345Z,9.60
2023-05-02T14:02:24.683Z,9.50
2023-05-02T14:04:53.106Z,9.50
2023-05-02T14:07:21.344Z,9.40
2023-05-02T14:09:49.616Z,9.40
2023-05-02T14:12:19.472Z,9.40
2023-05-02T14:14:47.881Z,9.40
2023-05-02T14:17:16.156Z,9.40
2023-05-02T14:19:44.465Z,9.40
2023-05-02T14:22:12.767Z,9.40
2023-05-02T14:24:41.231Z,9.40
2023-05-02T14:27:13.147Z,9.30
2023-05-02T14:29:43.181Z,9.20
2023-05-02T14:32:11.499Z,9.10
2023-05-02T14:34:39.790Z,9.10
2023-05-02T14:37:09.067Z,9.10
2023-05-02T14:39:37.645Z,8.90
2023-05-02T14:42:05.998Z,8.80
2023-05-02T14:44:34.254Z,8.90
2023-05-02T14:47:04.184Z,8.90
2023-05-02T14:49:32.629Z,8.80
2023-05-02T14:52:00.873Z,8.90
2023-05-02T14:54:30.550Z,9.00
2023-05-02T14:56:59.942Z,9.10
2023-05-02T14:59:29.767Z,9.10
2023-05-02T15:02:02.798Z,9.20
2023-05-02T15:04:34.255Z,9.20
2023-05-02T15:07:02.880Z,9.10
2023-05-02T15:09:31.614Z,9.20
2023-05-02T15:12:01.073Z,9.10
2023-05-02T15:14:29.611Z,9.10
2023-05-02T15:16:58.114Z,9.00
2023-05-02T15:19:26.774Z,8.90
2023-05-02T15:21:57.661Z,8.70
2023-05-02T15:24:26.422Z,8.60
2023-05-02T15:26:54.866Z,8.50
2023-05-02T15:29:23.306Z,8.40
2023-05-02T15:31:51.925Z,8.30
2023-05-02T15:34:22.545Z,8.40
2023-05-02T15:36:52.350Z,8.30
2023-05-02T15:39:25.084Z,8.30
2023-05-02T15:41:53.780Z,7.40
2023-05-02T15:44:22.196Z,8.40
2023-05-02T15:46:50.651Z,8.50
2023-05-02T15:49:19.644Z,8.70
2023-05-02T15:51:48.241Z,8.60
2023-05-02T15:54:16.556Z,8.60
2023-05-02T15:56:46.718Z,8.50
2023-05-02T15:59:15.119Z,8.50
2023-05-02T16:01:43.460Z,8.50
2023-05-02T16:04:11.937Z,8.40
2023-05-02T16:06:41.632Z,8.20
2023-05-02T16:09:10.274Z,8.10
2023-05-02T16:11:38.599Z,8.00
2023-05-02T16:14:08.534Z,7.90
2023-05-02T16:16:37.025Z,7.90
2023-05-02T16:19:12.728Z,7.80
2023-05-02T16:21:43.209Z,7.80
2023-05-02T16:24:11.517Z,7.80
2023-05-02T16:26:40.974Z,7.70
2023-05-02T16:29:10.740Z,7.70
2023-05-02T16:31:39.115Z,7.70
2023-05-02T16:34:07.590Z,7.70
2023-05-02T16:36:36.989Z,7.60
2023-05-02T16:39:06.398Z,7.50
2023-05-02T16:41:35.937Z,7.50
2023-05-02T16:44:04.570Z,7.50
2023-05-02T16:46:34.639Z,7.40
2023-05-02T16:49:06.905Z,7.40
2023-05-02T16:51:36.939Z,7.30
2023-05-02T16:54:05.430Z,7.20
2023-05-02T16:56:33.955Z,7.20
2023-05-02T16:59:02.811Z,7.20
2023-05-02T17:01:32.116Z,7.20
2023-05-02T17:04:02.394Z,7.30
2023-05-02T17:06:31.883Z,7.20
2023-05-02T17:09:00.186Z,7.20
2023-05-02T17:11:28.653Z,7.20
2023-05-02T17:13:56.909Z,7.10
2023-05-02T17:16:26.510Z,7.10
2023-05-02T17:18:54.897Z,7.10
2023-05-02T17:21:24.674Z,7.10
2023-05-02T17:23:52.996Z,7.10
2023-05-02T17:26:22.282Z,7.10
2023-05-02T17:28:53.689Z,7.10
2023-05-02T17:31:22.449Z,7.00
2023-05-02T17:33:52.437Z,6.90
2023-05-02T17:36:21.093Z,6.90
2023-05-02T17:38:50.836Z,6.80
2023-05-02T17:41:20.770Z,6.70
2023-05-02T17:43:49.756Z,6.60
2023-05-02T17:46:18.277Z,6.60
2023-05-02T17:48:47.100Z,6.60
2023-05-02T17:51:15.452Z,6.50
2023-05-02T17:53:43.811Z,6.50
2023-05-02T17:56:16.152Z,6.50
2023-05-02T17:58:47.899Z,6.40
2023-05-02T18:01:17.771Z,6.40
2023-05-02T18:03:48.358Z,6.40
2023-05-02T18:06:17.784Z,6.40
2023-05-02T18:08:46.463Z,6.30
2023-05-02T18:11:17.577Z,6.30
2023-05-02T18:13:46.014Z,6.30
2023-05-02T18:16:14.934Z,6.20
2023-05-02T18:18:43.418Z,6.20
2023-05-02T18:21:11.819Z,6.20
2023-05-02T18:23:40.870Z,6.10
2023-05-02T18:26:14.375Z,6.10
2023-05-02T18:28:45.367Z,6.00
2023-05-02T18:31:17.572Z,6.10
2023-05-02T18:33:46.817Z,6.10
2023-05-02T18:36:19.304Z,6.10
2023-05-02T18:38:47.839Z,6.00
2023-05-02T18:41:17.610Z,6.00
2023-05-02T18:43:47.511Z,6.00
2023-05-02T18:46:16.025Z,6.00
2023-05-02T18:48:44.457Z,6.00
2023-05-02T18:51:12.885Z,6.00
2023-05-02T18:53:41.450Z,5.90
2023-05-02T18:56:15.903Z,6.10
2023-05-02T18:58:44.294Z,6.10
2023-05-02T19:01:15.329Z,6.10
2023-05-02T19:03:44.389Z,6.10
2023-05-02T19:06:13.083Z,6.00
2023-05-02T19:08:41.479Z,6.00
2023-05-02T19:11:10.274Z,5.90
2023-05-02T19:13:38.949Z,5.90
2023-05-02T19:16:10.824Z,5.90
2023-05-02T19:18:40.901Z,5.90
2023-05-02T19:21:12.580Z,5.80
2023-05-02T19:23:41.660Z,5.80
2023-05-02T19:26:13.509Z,5.80
2023-05-02T19:28:41.944Z,5.80
2023-05-02T19:31:11.588Z,5.80
2023-05-02T19:33:41.700Z,5.80
2023-05-02T19:36:10.179Z,5.80
2023-05-02T19:38:41.871Z,5.80
2023-05-02T19:41:10.171Z,5.70
2023-05-02T19:43:38.486Z,5.70
2023-05-02T19:46:07.145Z,5.70
2023-05-02T19:48:35.478Z,5.60
2023-05-02T19:51:07.580Z,5.70
2023-05-02T19:53:36.705Z,5.60
2023-05-02T19:56:06.967Z,5.60
2023-05-02T19:58:35.355Z,5.60
2023-05-02T20:01:05.030Z,5.60
2023-05-02T20:03:34.830Z,5.60
2023-05-02T20:06:03.797Z,5.60
2023-05-02T20:08:33.521Z,5.60
2023-05-02T20:11:01.932Z,5.60
2023-05-02T20:13:30.280Z,5.50
2023-05-02T20:15:58.790Z,5.50
2023-05-02T20:18:27.406Z,5.50
2023-05-02T20:20:56.654Z,5.50
2023-05-02T20:23:24.993Z,5.40
2023-05-02T20:25:54.811Z,5.40
2023-05-02T20:28:23.237Z,5.40
2023-05-02T20:30:51.592Z,5.40
2023-05-02T20:33:20.188Z,5.40
2023-05-02T20:35:54.540Z,5.40
2023-05-02T20:38:25.034Z,5.40
2023-05-02T20:40:54.899Z,5.30
2023-05-02T20:43:23.441Z,5.30
2023-05-02T20:45:51.874Z,5.30
2023-05-02T20:48:20.238Z,5.30
2023-05-02T20:50:57.436Z,5.30
2023-05-02T20:53:25.914Z,5.20
2023-05-02T20:55:55.784Z,5.20
2023-05-02T20:58:24.182Z,5.10
2023-05-02T21:00:54.218Z,5.10
2023-05-02T21:03:23.083Z,5.00
2023-05-02T21:05:54.822Z,5.00
2023-05-02T21:08:23.351Z,4.90
2023-05-02T21:10:51.637Z,4.90
2023-05-02T21:13:21.315Z,4.80
2023-05-02T21:15:49.842Z,4.80
2023-05-02T21:18:18.384Z,4.70
2023-05-02T21:20:50.470Z,4.70
2023-05-02T21:23:18.898Z,4.60
2023-05-02T21:25:47.364Z,4.60
2023-05-02T21:28:15.704Z,4.60
2023-05-02T21:30:45.397Z,4.60
2023-05-02T21:33:15.659Z,4.60
2023-05-02T21:35:44.043Z,4.60
2023-05-02T21:38:12.250Z,4.50
2023-05-02T21:40:40.517Z,4.50
2023-05-02T21:43:09.103Z,4.50
2023-05-02T21:45:46.623Z,4.50
2023-05-02T21:48:15.289Z,4.50
2023-05-02T21:50:43.965Z,4.50
2023-05-02T21:53:12.288Z,4.50
2023-05-02T21:55:41.268Z,4.50
2023-05-02T21:58:10.022Z,4.50
2023-05-02T22:00:38.746Z,4.50
2023-05-02T22:03:11.563Z,4.40
2023-05-02T22:05:41.432Z,4.40
2023-05-02T22:08:10.228Z,4.40
2023-05-02T22:10:39.202Z,4.40
2023-05-02T22:13:09.705Z,4.40
2023-05-02T22:15:38.354Z,4.30
2023-05-02T22:18:07.101Z,4.30
2023-05-02T22:20:36.788Z,4.30
2023-05-02T22:23:05.346Z,4.30
2023-05-02T22:25:35.871Z,4.30
2023-05-02T22:28:06.942Z,4.30
2023-05-02T22:30:54.078Z,4.30
2023-05-02T22:33:22.385Z,4.30
2023-05-02T22:35:52.035Z,4.40
2023-05-02T22:38:20.763Z,4.30
2023-05-02T22:40:48.990Z,4.40
2023-05-02T22:43:17.711Z,4.40
2023-05-02T22:45:46.515Z,4.40
2023-05-02T22:48:14.776Z,4.30
2023-05-02T22:50:43.921Z,4.30
2023-05-02T22:53:13.606Z,4.30
2023-05-02T22:55:41.881Z,4.30
2023-05-02T22:58:10.220Z,4.30
2023-05-02T23:00:38.493Z,4.20
2023-05-02T23:03:06.932Z,4.20
2023-05-02T23:05:36.859Z,4.20
2023-05-02T23:08:05.440Z,4.10
2023-05-02T23:10:35.397Z,4.10
2023-05-02T23:13:03.760Z,4.10
2023-05-02T23:15:32.032Z,4.10
2023-05-02T23:18:00.441Z,4.10
2023-05-02T23:20:28.751Z,4.10
2023-05-02T23:22:57.327Z,4.10
2023-05-02T23:25:27.672Z,4.00
2023-05-02T23:27:57.387Z,4.00
2023-05-02T23:30:25.806Z,3.90
2023-05-02T23:32:54.050Z,3.90
2023-05-02T23:35:22.543Z,3.80
2023-05-02T23:37:50.905Z,3.80
2023-05-02T23:40:19.397Z,3.70
2023-05-02T23:42:47.792Z,3.60
2023-05-02T23:45:17.652Z,3.70
2023-05-02T23:47:46.600Z,3.60
2023-05-02T23:50:15.179Z,3.50
2023-05-02T23:52:43.394Z,3.50
2023-05-02T23:55:12.978Z,3.50
2023-05-02T23:57:41.550Z,3.40
